createdAt,value
2022-08-15T00:00:20.756Z,18.53
2022-08-15T00:00:45.756Z,18.53
2022-08-15T00:01:15.301Z,18.53
2022-08-15T00:01:46.152Z,18.54
2022-08-15T00:02:34.965Z,18.53
2022-08-15T00:02:49.752Z,18.53
2022-08-15T00:03:19.625Z,18.50
2022-08-15T00:04:02.397Z,18.46
2022-08-15T00:04:34.399Z,18.46
2022-08-15T00:04:52.192Z,18.42
2022-08-15T00:05:21.925Z,18.44
2022-08-15T00:05:52.713Z,18.42
2022-08-15T00:06:39.282Z,18.39
2022-08-15T00:06:55.287Z,18.36
2022-08-15T00:07:45.750Z,18.36
2022-08-15T00:07:57.057Z,18.34
2022-08-15T00:08:50.833Z,18.34
2022-08-15T00:08:58.423Z,18.32
2022-08-15T00:09:55.417Z,18.35
2022-08-15T00:09:59.739Z,18.35
2022-08-15T00:11:00.019Z,18.32
2022-08-15T00:11:19.750Z,18.29
2022-08-15T00:11:32.333Z,18.32
2022-08-15T00:12:04.718Z,18.32
2022-08-15T00:12:35.681Z,18.32
2022-08-15T00:13:14.058Z,18.35
2022-08-15T00:13:41.292Z,18.36
2022-08-15T00:14:06.130Z,18.39
2022-08-15T00:14:36.900Z,18.41
2022-08-15T00:15:09.127Z,18.41
2022-08-15T00:15:37.477Z,18.42
2022-08-15T00:16:09.671Z,18.44
2022-08-15T00:16:38.934Z,18.44
2022-08-15T00:17:10.524Z,18.46
2022-08-15T00:17:48.617Z,18.47
2022-08-15T00:18:10.874Z,18.47
2022-08-15T00:18:42.470Z,18.47
2022-08-15T00:19:13.304Z,18.49
2022-08-15T00:19:43.101Z,18.47
2022-08-15T00:20:20.063Z,18.50
2022-08-15T00:20:50.484Z,18.51
2022-08-15T00:21:16.517Z,18.50
2022-08-15T00:21:48.936Z,18.50
2022-08-15T00:22:19.108Z,18.50
2022-08-15T00:22:47.682Z,18.53
2022-08-15T00:23:18.126Z,18.53
2022-08-15T00:23:49.940Z,18.51
2022-08-15T00:24:20.925Z,18.49
2022-08-15T00:24:52.091Z,18.46
2022-08-15T00:25:26.740Z,18.44
2022-08-15T00:25:57.844Z,18.44
2022-08-15T00:26:28.988Z,18.44
2022-08-15T00:26:56.484Z,18.42
2022-08-15T00:27:26.219Z,18.39
2022-08-15T00:27:55.996Z,18.38
2022-08-15T00:28:36.046Z,18.38
2022-08-15T00:28:58.535Z,18.36
2022-08-15T00:29:37.509Z,18.36
2022-08-15T00:29:59.708Z,18.35
2022-08-15T00:30:57.660Z,18.35
2022-08-15T00:31:00.593Z,18.35
2022-08-15T00:31:41.245Z,18.36
2022-08-15T00:32:02.086Z,18.39
2022-08-15T00:33:03.509Z,18.38
2022-08-15T00:33:20.906Z,18.39
2022-08-15T00:33:34.422Z,18.41
2022-08-15T00:34:04.996Z,18.44
2022-08-15T00:34:38.433Z,18.42
2022-08-15T00:35:08.775Z,18.46
2022-08-15T00:35:38.363Z,18.44
2022-08-15T00:36:52.309Z,18.46
2022-08-15T00:36:52.332Z,18.46
2022-08-15T00:37:09.118Z,18.46
2022-08-15T00:38:11.639Z,18.49
2022-08-15T00:38:12.477Z,18.47
2022-08-15T00:38:41.382Z,18.51
2022-08-15T00:39:11.118Z,18.51
2022-08-15T00:39:42.715Z,18.51
2022-08-15T00:40:17.952Z,18.53
2022-08-15T00:40:44.046Z,18.51
2022-08-15T00:41:13.727Z,18.51
2022-08-15T00:41:44.454Z,18.51
2022-08-15T00:42:17.198Z,18.53
2022-08-15T00:42:46.166Z,18.54
2022-08-15T00:43:18.002Z,18.56
2022-08-15T00:43:48.269Z,18.54
2022-08-15T00:44:19.641Z,18.54
2022-08-15T00:44:52.576Z,18.53
2022-08-15T00:45:21.982Z,18.51
2022-08-15T00:45:55.883Z,18.51
2022-08-15T00:46:23.425Z,18.53
2022-08-15T00:46:53.607Z,18.53
2022-08-15T00:47:24.457Z,18.54
2022-08-15T00:47:55.234Z,18.57
2022-08-15T00:48:25.912Z,18.57
2022-08-15T00:48:56.531Z,18.59
2022-08-15T00:49:26.280Z,18.60
2022-08-15T00:50:02.867Z,18.60
2022-08-15T00:50:34.243Z,18.60
2022-08-15T00:50:59.554Z,18.57
2022-08-15T00:51:30.634Z,18.54
2022-08-15T00:52:00.863Z,18.54
2022-08-15T00:52:31.555Z,18.56
2022-08-15T00:53:01.604Z,18.56
2022-08-15T00:53:32.397Z,18.53
2022-08-15T00:54:03.213Z,18.53
2022-08-15T00:54:55.901Z,18.53
2022-08-15T00:55:05.811Z,18.51
2022-08-15T00:55:35.396Z,18.53
2022-08-15T00:56:06.182Z,18.51
2022-08-15T00:56:37.999Z,18.53
2022-08-15T00:57:10.277Z,18.51
2022-08-15T00:57:59.764Z,18.51
2022-08-15T00:58:33.455Z,18.53
2022-08-15T00:58:44.013Z,18.54
2022-08-15T00:59:11.827Z,18.53
2022-08-15T00:59:43.416Z,18.56
2022-08-15T01:00:12.514Z,18.56
2022-08-15T01:00:44.951Z,18.57
2022-08-15T01:01:14.183Z,18.62
2022-08-15T01:02:00.971Z,18.66
2022-08-15T01:02:22.664Z,18.68
2022-08-15T01:02:47.657Z,18.71
2022-08-15T01:03:17.988Z,18.74
2022-08-15T01:03:53.276Z,18.76
2022-08-15T01:04:19.383Z,18.78
2022-08-15T01:04:49.125Z,18.82
2022-08-15T01:05:19.903Z,18.84
2022-08-15T01:05:52.045Z,18.89
2022-08-15T01:06:21.362Z,18.94
2022-08-15T01:06:57.258Z,18.96
2022-08-15T01:07:24.221Z,18.97
2022-08-15T01:07:54.220Z,19.02
2022-08-15T01:08:30.555Z,19.02
2022-08-15T01:08:56.589Z,19.09
2022-08-15T01:09:27.530Z,19.12
2022-08-15T01:09:58.313Z,19.15
2022-08-15T01:10:28.237Z,19.15
2022-08-15T01:11:03.178Z,19.16
2022-08-15T01:11:33.663Z,19.17
2022-08-15T01:12:00.285Z,19.23
2022-08-15T01:12:31.255Z,19.25
2022-08-15T01:13:07.651Z,19.28
2022-08-15T01:14:05.316Z,19.31
2022-08-15T01:14:56.951Z,19.32
2022-08-15T01:14:57.159Z,19.34
2022-08-15T01:15:06.119Z,19.35
2022-08-15T01:15:42.228Z,19.39
2022-08-15T01:16:07.572Z,19.39
2022-08-15T01:16:38.371Z,19.39
2022-08-15T01:17:10.542Z,19.42
2022-08-15T01:17:39.757Z,19.45
2022-08-15T01:18:33.882Z,19.45
2022-08-15T01:18:41.307Z,19.47
2022-08-15T01:19:13.499Z,19.47
2022-08-15T01:19:42.645Z,19.46
2022-08-15T01:20:24.491Z,19.49
2022-08-15T01:20:44.178Z,19.50
2022-08-15T01:21:14.915Z,19.49
2022-08-15T01:21:44.652Z,19.53
2022-08-15T01:22:16.249Z,19.55
2022-08-15T01:22:47.973Z,19.55
2022-08-15T01:23:16.849Z,19.58
2022-08-15T01:23:54.528Z,19.60
2022-08-15T01:24:19.585Z,19.58
2022-08-15T01:25:16.982Z,19.58
2022-08-15T01:25:26.598Z,19.58
2022-08-15T01:26:41.994Z,19.60
2022-08-15T01:26:42.796Z,19.61
2022-08-15T01:26:53.728Z,19.58
2022-08-15T01:27:24.438Z,19.58
2022-08-15T01:27:55.215Z,19.60
2022-08-15T01:28:31.556Z,19.60
2022-08-15T01:28:56.616Z,19.61
2022-08-15T01:29:27.510Z,19.61
2022-08-15T01:29:57.471Z,19.60
2022-08-15T01:30:39.968Z,19.61
2022-08-15T01:31:03.231Z,19.64
2022-08-15T01:31:30.373Z,19.64
2022-08-15T01:32:01.110Z,19.62
2022-08-15T01:32:31.648Z,19.64
2022-08-15T01:33:02.659Z,19.61
2022-08-15T01:33:32.568Z,19.62
2022-08-15T01:34:13.126Z,19.64
2022-08-15T01:34:35.120Z,19.62
2022-08-15T01:35:05.754Z,19.61
2022-08-15T01:35:42.226Z,19.64
2022-08-15T01:36:31.987Z,19.62
2022-08-15T01:36:38.415Z,19.62
2022-08-15T01:37:08.103Z,19.64
2022-08-15T01:37:56.717Z,19.64
2022-08-15T01:38:10.474Z,19.62
2022-08-15T01:39:05.427Z,19.64
2022-08-15T01:39:12.872Z,19.62
2022-08-15T01:39:43.807Z,19.64
2022-08-15T01:40:51.980Z,19.62
2022-08-15T01:40:53.895Z,19.64
2022-08-15T01:41:15.399Z,19.65
2022-08-15T01:41:55.453Z,19.65
2022-08-15T01:42:17.610Z,19.65
2022-08-15T01:42:47.754Z,19.65
2022-08-15T01:43:17.493Z,19.65
2022-08-15T01:43:54.580Z,19.65
2022-08-15T01:44:32.127Z,19.67
2022-08-15T01:44:59.658Z,19.64
2022-08-15T01:45:21.659Z,19.65
2022-08-15T01:45:51.544Z,19.65
2022-08-15T01:46:23.510Z,19.64
2022-08-15T01:46:54.355Z,19.64
2022-08-15T01:47:25.982Z,19.64
2022-08-15T01:47:54.922Z,19.64
2022-08-15T01:48:27.106Z,19.67
2022-08-15T01:48:56.373Z,19.65
2022-08-15T01:49:27.002Z,19.65
2022-08-15T01:49:58.798Z,19.64
2022-08-15T01:50:30.520Z,19.62
2022-08-15T01:50:59.496Z,19.62
2022-08-15T01:51:31.315Z,19.62
2022-08-15T01:52:02.336Z,19.62
2022-08-15T01:53:00.137Z,19.64
2022-08-15T01:53:16.156Z,19.65
2022-08-15T01:53:34.902Z,19.65
2022-08-15T01:54:06.487Z,19.67
2022-08-15T01:55:02.356Z,19.65
2022-08-15T01:55:08.062Z,19.68
2022-08-15T01:55:44.277Z,19.65
2022-08-15T01:56:35.382Z,19.64
2022-08-15T01:56:39.268Z,19.64
2022-08-15T01:57:10.043Z,19.64
2022-08-15T01:57:41.054Z,19.64
2022-08-15T01:58:10.930Z,19.65
2022-08-15T01:58:41.929Z,19.65
2022-08-15T01:59:13.873Z,19.67
2022-08-15T01:59:43.614Z,19.65
2022-08-15T02:00:18.658Z,19.65
2022-08-15T02:00:45.520Z,19.67
2022-08-15T02:01:16.483Z,19.70
2022-08-15T02:01:54.864Z,19.68
2022-08-15T02:02:49.817Z,19.70
2022-08-15T02:02:50.225Z,19.68
2022-08-15T02:03:20.444Z,19.71
2022-08-15T02:03:52.248Z,19.71
2022-08-15T02:04:24.761Z,19.72
2022-08-15T02:04:54.033Z,19.71
2022-08-15T02:05:23.344Z,19.71
2022-08-15T02:05:57.384Z,19.70
2022-08-15T02:06:34.999Z,19.71
2022-08-15T02:06:56.960Z,19.75
2022-08-15T02:07:26.149Z,19.72
2022-08-15T02:08:34.236Z,19.75
2022-08-15T02:08:35.034Z,19.72
2022-08-15T02:08:58.262Z,19.75
2022-08-15T02:09:38.542Z,19.75
2022-08-15T02:10:10.867Z,19.72
2022-08-15T02:10:30.475Z,19.75
2022-08-15T02:11:01.279Z,19.75
2022-08-15T02:11:41.106Z,19.78
2022-08-15T02:12:04.104Z,19.76
2022-08-15T02:13:02.980Z,19.76
2022-08-15T02:13:12.394Z,19.75
2022-08-15T02:13:35.050Z,19.75
2022-08-15T02:14:05.722Z,19.78
2022-08-15T02:14:37.450Z,19.76
2022-08-15T02:15:06.199Z,19.72
2022-08-15T02:15:37.157Z,19.75
2022-08-15T02:16:10.417Z,19.75
2022-08-15T02:16:38.771Z,19.75
2022-08-15T02:17:10.356Z,19.75
2022-08-15T02:17:41.164Z,19.76
2022-08-15T02:18:10.937Z,19.76
2022-08-15T02:18:41.719Z,19.76
2022-08-15T02:19:13.767Z,19.76
2022-08-15T02:19:45.924Z,19.76
2022-08-15T02:20:23.196Z,19.76
2022-08-15T02:20:46.186Z,19.72
2022-08-15T02:21:17.014Z,19.75
2022-08-15T02:21:46.753Z,19.72
2022-08-15T02:22:26.235Z,19.71
2022-08-15T02:22:49.279Z,19.71
2022-08-15T02:23:20.631Z,19.71
2022-08-15T02:23:49.534Z,19.75
2022-08-15T02:24:21.352Z,19.72
2022-08-15T02:24:51.896Z,19.75
2022-08-15T02:25:22.824Z,19.71
2022-08-15T02:25:53.928Z,19.71
2022-08-15T02:26:26.338Z,19.70
2022-08-15T02:26:54.915Z,19.70
2022-08-15T02:27:24.658Z,19.68
2022-08-15T02:27:56.246Z,19.67
2022-08-15T02:28:36.137Z,19.67
2022-08-15T02:28:57.596Z,19.67
2022-08-15T02:29:28.136Z,19.67
2022-08-15T02:29:58.682Z,19.67
2022-08-15T02:30:30.563Z,19.67
2022-08-15T02:31:00.175Z,19.68
2022-08-15T02:31:34.643Z,19.65
2022-08-15T02:32:00.890Z,19.65
2022-08-15T02:32:32.599Z,19.64
2022-08-15T02:33:02.374Z,19.62
2022-08-15T02:33:36.305Z,19.64
2022-08-15T02:34:03.761Z,19.62
2022-08-15T02:34:44.642Z,19.62
2022-08-15T02:35:06.357Z,19.62
2022-08-15T02:35:36.167Z,19.62
2022-08-15T02:36:12.538Z,19.64
2022-08-15T02:36:52.935Z,19.62
2022-08-15T02:37:09.570Z,19.62
2022-08-15T02:37:39.613Z,19.61
2022-08-15T02:38:11.855Z,19.61
2022-08-15T02:38:47.445Z,19.61
2022-08-15T02:39:12.750Z,19.58
2022-08-15T02:39:44.639Z,19.58
2022-08-15T02:40:47.224Z,19.58
2022-08-15T02:40:48.874Z,19.58
2022-08-15T02:41:15.816Z,19.57
2022-08-15T02:41:45.418Z,19.60
2022-08-15T02:42:17.120Z,19.60
2022-08-15T02:42:48.202Z,19.62
2022-08-15T02:43:19.801Z,19.64
2022-08-15T02:43:49.288Z,19.61
2022-08-15T02:44:23.062Z,19.61
2022-08-15T02:44:50.030Z,19.60
2022-08-15T02:45:22.388Z,19.61
2022-08-15T02:45:57.447Z,19.60
2022-08-15T02:46:28.200Z,19.60
2022-08-15T02:47:02.137Z,19.57
2022-08-15T02:47:24.783Z,19.58
2022-08-15T02:47:55.353Z,19.60
2022-08-15T02:48:27.025Z,19.58
2022-08-15T02:48:57.969Z,19.57
2022-08-15T02:49:26.720Z,19.57
2022-08-15T02:49:58.543Z,19.57
2022-08-15T02:50:28.337Z,19.58
2022-08-15T02:50:59.121Z,19.57
2022-08-15T02:51:32.131Z,19.57
2022-08-15T02:52:03.726Z,19.58
2022-08-15T02:52:32.444Z,19.53
2022-08-15T02:53:03.003Z,19.57
2022-08-15T02:53:32.576Z,19.57
2022-08-15T02:54:37.024Z,19.55
2022-08-15T02:54:38.186Z,19.53
2022-08-15T02:55:05.947Z,19.53
2022-08-15T02:55:35.603Z,19.53
2022-08-15T02:56:07.220Z,19.55
2022-08-15T02:56:37.160Z,19.57
2022-08-15T02:57:09.862Z,19.55
2022-08-15T02:57:59.176Z,19.55
2022-08-15T02:58:10.770Z,19.53
2022-08-15T02:58:41.779Z,19.53
2022-08-15T02:59:12.967Z,19.52
2022-08-15T02:59:42.692Z,19.52
2022-08-15T03:00:18.441Z,19.52
2022-08-15T03:00:44.133Z,19.52
2022-08-15T03:01:16.169Z,19.52
2022-08-15T03:01:44.656Z,19.50
2022-08-15T03:02:29.835Z,19.47
2022-08-15T03:02:47.151Z,19.47
2022-08-15T03:03:17.470Z,19.49
2022-08-15T03:03:48.729Z,19.50
2022-08-15T03:04:28.809Z,19.50
2022-08-15T03:04:50.119Z,19.52
2022-08-15T03:05:21.138Z,19.50
2022-08-15T03:05:55.110Z,19.47
2022-08-15T03:06:32.212Z,19.49
2022-08-15T03:06:53.557Z,19.49
2022-08-15T03:07:23.291Z,19.47
2022-08-15T03:07:55.106Z,19.47
2022-08-15T03:08:25.644Z,19.45
2022-08-15T03:08:56.201Z,19.45
2022-08-15T03:09:25.934Z,19.46
2022-08-15T03:09:58.435Z,19.45
2022-08-15T03:10:29.506Z,19.45
2022-08-15T03:10:59.617Z,19.42
2022-08-15T03:11:40.195Z,19.43
2022-08-15T03:12:07.647Z,19.45
2022-08-15T03:12:32.740Z,19.45
2022-08-15T03:13:01.688Z,19.42
2022-08-15T03:13:39.341Z,19.43
2022-08-15T03:14:04.063Z,19.46
2022-08-15T03:14:34.966Z,19.45
2022-08-15T03:15:04.717Z,19.45
2022-08-15T03:15:36.286Z,19.47
2022-08-15T03:16:06.026Z,19.46
2022-08-15T03:16:37.847Z,19.46
2022-08-15T03:17:08.078Z,19.45
2022-08-15T03:17:39.234Z,19.43
2022-08-15T03:18:10.201Z,19.45
2022-08-15T03:18:41.109Z,19.42
2022-08-15T03:19:10.837Z,19.43
2022-08-15T03:19:45.333Z,19.43
2022-08-15T03:20:13.412Z,19.45
2022-08-15T03:20:44.896Z,19.43
2022-08-15T03:21:14.531Z,19.40
2022-08-15T03:21:45.517Z,19.40
2022-08-15T03:22:19.967Z,19.42
2022-08-15T03:22:47.383Z,19.40
2022-08-15T03:23:17.529Z,19.40
2022-08-15T03:23:48.084Z,19.39
2022-08-15T03:24:18.667Z,19.39
2022-08-15T03:24:49.234Z,19.39
2022-08-15T03:25:29.803Z,19.39
2022-08-15T03:25:55.298Z,19.39
2022-08-15T03:26:26.564Z,19.40
2022-08-15T03:26:54.837Z,19.40
2022-08-15T03:27:23.036Z,19.42
2022-08-15T03:27:53.560Z,19.39
2022-08-15T03:28:28.194Z,19.39
2022-08-15T03:29:00.814Z,19.39
2022-08-15T03:29:34.088Z,19.39
2022-08-15T03:29:56.674Z,19.42
2022-08-15T03:30:27.209Z,19.39
2022-08-15T03:30:56.953Z,19.42
2022-08-15T03:31:28.536Z,19.40
2022-08-15T03:31:59.315Z,19.40
2022-08-15T03:32:36.813Z,19.40
2022-08-15T03:33:00.979Z,19.43
2022-08-15T03:33:55.072Z,19.40
2022-08-15T03:34:02.291Z,19.38
2022-08-15T03:34:32.932Z,19.38
2022-08-15T03:35:03.507Z,19.38
2022-08-15T03:35:34.052Z,19.35
2022-08-15T03:36:04.946Z,19.38
2022-08-15T03:36:34.678Z,19.35
2022-08-15T03:37:06.630Z,19.35
2022-08-15T03:37:43.775Z,19.34
2022-08-15T03:38:08.318Z,19.35
2022-08-15T03:38:52.101Z,19.39
2022-08-15T03:39:09.827Z,19.39
2022-08-15T03:39:40.389Z,19.39
2022-08-15T03:40:11.551Z,19.39
2022-08-15T03:40:44.400Z,19.39
2022-08-15T03:41:11.613Z,19.38
2022-08-15T03:41:43.204Z,19.39
2022-08-15T03:42:18.364Z,19.38
2022-08-15T03:42:44.778Z,19.38
2022-08-15T03:43:15.553Z,19.40
2022-08-15T03:43:46.507Z,19.40
2022-08-15T03:44:26.759Z,19.40
2022-08-15T03:44:50.818Z,19.40
2022-08-15T03:45:18.079Z,19.38
2022-08-15T03:45:50.617Z,19.38
2022-08-15T03:46:23.841Z,19.40
2022-08-15T03:46:50.826Z,19.38
2022-08-15T03:47:20.580Z,19.38
2022-08-15T03:47:56.004Z,19.35
2022-08-15T03:48:22.362Z,19.34
2022-08-15T03:48:55.348Z,19.34
2022-08-15T03:50:22.448Z,19.34
2022-08-15T03:50:24.678Z,19.31
2022-08-15T03:50:35.587Z,19.30
2022-08-15T03:50:57.900Z,19.27
2022-08-15T03:51:26.111Z,19.30
2022-08-15T03:51:57.907Z,19.27
2022-08-15T03:52:33.383Z,19.27
2022-08-15T03:52:59.358Z,19.24
2022-08-15T03:53:29.438Z,19.25
2022-08-15T03:53:59.703Z,19.25
2022-08-15T03:54:31.447Z,19.24
2022-08-15T03:55:02.176Z,19.23
2022-08-15T03:55:33.174Z,19.23
2022-08-15T03:56:03.067Z,19.24
2022-08-15T03:56:34.747Z,19.20
2022-08-15T03:57:05.715Z,19.20
2022-08-15T03:58:01.595Z,19.21
2022-08-15T03:58:07.201Z,19.21
2022-08-15T03:58:37.249Z,19.23
2022-08-15T03:59:12.169Z,19.20
2022-08-15T03:59:40.588Z,19.20
2022-08-15T04:00:10.572Z,19.17
2022-08-15T04:00:41.610Z,19.21
2022-08-15T04:01:13.564Z,19.21
2022-08-15T04:01:43.298Z,19.17
2022-08-15T04:02:30.867Z,19.17
2022-08-15T04:02:44.638Z,19.16
2022-08-15T04:03:14.324Z,19.16
2022-08-15T04:03:45.879Z,19.20
2022-08-15T04:04:19.024Z,19.20
2022-08-15T04:04:47.575Z,19.21
2022-08-15T04:05:18.392Z,19.21
2022-08-15T04:05:48.111Z,19.20
2022-08-15T04:06:28.127Z,19.23
2022-08-15T04:07:00.369Z,19.21
2022-08-15T04:07:23.528Z,19.23
2022-08-15T04:07:57.566Z,19.23
2022-08-15T04:09:04.050Z,19.24
2022-08-15T04:09:12.617Z,19.25
2022-08-15T04:09:29.999Z,19.24
2022-08-15T04:09:56.639Z,19.24
2022-08-15T04:10:37.167Z,19.24
2022-08-15T04:10:56.624Z,19.25
2022-08-15T04:11:34.818Z,19.24
2022-08-15T04:11:58.100Z,19.23
2022-08-15T04:12:29.621Z,19.25
2022-08-15T04:12:59.683Z,19.24
2022-08-15T04:13:29.686Z,19.25
2022-08-15T04:14:01.454Z,19.27
2022-08-15T04:14:35.730Z,19.25
2022-08-15T04:15:02.183Z,19.27
2022-08-15T04:15:33.931Z,19.27
2022-08-15T04:16:06.342Z,19.27
2022-08-15T04:17:02.880Z,19.25
2022-08-15T04:17:13.755Z,19.25
2022-08-15T04:17:57.874Z,19.25
2022-08-15T04:18:42.990Z,19.30
2022-08-15T04:18:43.440Z,19.28
2022-08-15T04:19:09.475Z,19.28
2022-08-15T04:19:46.217Z,19.30
2022-08-15T04:20:18.576Z,19.30
2022-08-15T04:20:43.027Z,19.30
2022-08-15T04:21:11.282Z,19.30
2022-08-15T04:21:50.473Z,19.27
2022-08-15T04:22:28.821Z,19.27
2022-08-15T04:22:52.503Z,19.27
2022-08-15T04:23:14.992Z,19.25
2022-08-15T04:23:44.871Z,19.27
2022-08-15T04:24:28.749Z,19.28
2022-08-15T04:24:47.149Z,19.30
2022-08-15T04:25:20.054Z,19.31
2022-08-15T04:25:54.729Z,19.31
2022-08-15T04:26:21.358Z,19.31
2022-08-15T04:26:53.466Z,19.30
2022-08-15T04:27:20.964Z,19.30
2022-08-15T04:27:53.529Z,19.31
2022-08-15T04:28:28.699Z,19.28
2022-08-15T04:28:55.498Z,19.30
2022-08-15T04:29:24.575Z,19.28
2022-08-15T04:29:54.265Z,19.30
2022-08-15T04:30:26.243Z,19.31
2022-08-15T04:30:57.246Z,19.30
2022-08-15T04:31:33.175Z,19.30
2022-08-15T04:31:58.959Z,19.30
2022-08-15T04:32:35.082Z,19.32
2022-08-15T04:33:18.570Z,19.32
2022-08-15T04:34:22.521Z,19.34
2022-08-15T04:34:47.580Z,19.34
2022-08-15T04:34:48.874Z,19.32
2022-08-15T04:35:03.384Z,19.31
2022-08-15T04:35:34.511Z,19.28
2022-08-15T04:36:04.193Z,19.27
2022-08-15T04:36:36.235Z,19.25
2022-08-15T04:37:12.460Z,19.27
2022-08-15T04:37:39.582Z,19.25
2022-08-15T04:38:08.671Z,19.27
2022-08-15T04:38:39.713Z,19.25
2022-08-15T04:39:12.781Z,19.24
2022-08-15T04:39:40.590Z,19.27
2022-08-15T04:41:15.562Z,19.27
2022-08-15T04:41:19.161Z,19.25
2022-08-15T04:41:19.402Z,19.27
2022-08-15T04:41:50.509Z,19.24
2022-08-15T04:42:22.603Z,19.24
2022-08-15T04:42:49.958Z,19.24
2022-08-15T04:43:16.098Z,19.25
2022-08-15T04:43:47.128Z,19.25
2022-08-15T04:44:18.004Z,19.25
2022-08-15T04:44:48.789Z,19.23
2022-08-15T04:45:19.656Z,19.23
2022-08-15T04:45:50.620Z,19.23
2022-08-15T04:46:22.899Z,19.23
2022-08-15T04:46:51.982Z,19.20
2022-08-15T04:47:21.987Z,19.20
2022-08-15T04:47:53.658Z,19.20
2022-08-15T04:48:24.294Z,19.17
2022-08-15T04:48:55.162Z,19.16
2022-08-15T04:49:24.767Z,19.15
2022-08-15T04:49:56.288Z,19.16
2022-08-15T04:50:28.524Z,19.13
2022-08-15T04:50:58.035Z,19.13
2022-08-15T04:51:34.966Z,19.15
2022-08-15T04:51:59.792Z,19.13
2022-08-15T04:52:30.673Z,19.15
2022-08-15T04:53:01.340Z,19.16
2022-08-15T04:53:32.329Z,19.16
2022-08-15T04:54:03.326Z,19.16
2022-08-15T04:54:35.471Z,19.15
2022-08-15T04:55:05.023Z,19.16
2022-08-15T04:55:44.747Z,19.15
2022-08-15T04:56:06.768Z,19.13
2022-08-15T04:56:51.357Z,19.13
2022-08-15T04:57:08.214Z,19.12
2022-08-15T04:57:43.946Z,19.13
2022-08-15T04:58:41.605Z,19.15
2022-08-15T04:58:42.071Z,19.13
2022-08-15T04:59:33.743Z,19.15
2022-08-15T05:00:05.677Z,19.16
2022-08-15T05:00:13.190Z,19.15
2022-08-15T05:00:43.363Z,19.17
2022-08-15T05:01:13.912Z,19.17
2022-08-15T05:02:04.833Z,19.17
2022-08-15T05:02:53.644Z,19.20
2022-08-15T05:02:54.510Z,19.20
2022-08-15T05:03:17.094Z,19.20
2022-08-15T05:03:54.616Z,19.20
2022-08-15T05:04:23.997Z,19.20
2022-08-15T05:04:50.152Z,19.20
2022-08-15T05:05:20.362Z,19.20
2022-08-15T05:05:55.187Z,19.20
2022-08-15T05:06:29.137Z,19.20
2022-08-15T05:06:52.830Z,19.20
2022-08-15T05:07:27.869Z,19.21
2022-08-15T05:07:58.420Z,19.21
2022-08-15T05:08:25.406Z,19.20
2022-08-15T05:08:55.935Z,19.23
2022-08-15T05:09:26.957Z,19.24
2022-08-15T05:09:58.728Z,19.24
2022-08-15T05:10:33.304Z,19.23
2022-08-15T05:10:59.349Z,19.23
2022-08-15T05:12:01.165Z,19.24
2022-08-15T05:12:09.267Z,19.24
2022-08-15T05:12:33.632Z,19.24
2022-08-15T05:13:02.630Z,19.24
2022-08-15T05:13:33.367Z,19.24
2022-08-15T05:14:03.877Z,19.24
2022-08-15T05:14:36.544Z,19.24
2022-08-15T05:15:05.783Z,19.23
2022-08-15T05:15:35.083Z,19.21
2022-08-15T05:16:06.853Z,19.24
2022-08-15T05:16:36.743Z,19.23
2022-08-15T05:17:10.766Z,19.24
2022-08-15T05:17:56.492Z,19.21
2022-08-15T05:18:17.160Z,19.23
2022-08-15T05:18:40.741Z,19.23
2022-08-15T05:19:11.462Z,19.23
2022-08-15T05:19:42.480Z,19.21
2022-08-15T05:20:13.480Z,19.23
2022-08-15T05:20:44.125Z,19.21
2022-08-15T05:21:15.136Z,19.21
2022-08-15T05:21:45.993Z,19.21
2022-08-15T05:22:16.741Z,19.20
2022-08-15T05:22:54.936Z,19.21
2022-08-15T05:23:18.480Z,19.21
2022-08-15T05:23:52.419Z,19.20
2022-08-15T05:24:29.348Z,19.21
2022-08-15T05:24:50.610Z,19.23
2022-08-15T05:25:21.334Z,19.23
2022-08-15T05:25:52.334Z,19.23
2022-08-15T05:26:37.552Z,19.23
2022-08-15T05:26:57.800Z,19.23
2022-08-15T05:27:24.791Z,19.23
2022-08-15T05:27:55.516Z,19.21
2022-08-15T05:28:29.176Z,19.23
2022-08-15T05:28:58.151Z,19.20
2022-08-15T05:29:27.822Z,19.23
2022-08-15T05:29:58.960Z,19.21
2022-08-15T05:30:30.534Z,19.23
2022-08-15T05:31:04.430Z,19.23
2022-08-15T05:31:32.338Z,19.23
2022-08-15T05:32:02.243Z,19.24
2022-08-15T05:32:32.768Z,19.24
2022-08-15T05:33:03.665Z,19.24
2022-08-15T05:33:56.742Z,19.25
2022-08-15T05:34:05.046Z,19.25
2022-08-15T05:34:37.648Z,19.25
2022-08-15T05:35:06.670Z,19.24
2022-08-15T05:35:37.508Z,19.25
2022-08-15T05:36:08.375Z,19.25
2022-08-15T05:36:39.107Z,19.25
2022-08-15T05:37:09.926Z,19.25
2022-08-15T05:37:41.756Z,19.27
2022-08-15T05:38:22.510Z,19.27
2022-08-15T05:38:42.672Z,19.27
2022-08-15T05:39:13.223Z,19.28
2022-08-15T05:39:44.013Z,19.28
2022-08-15T05:40:23.649Z,19.28
2022-08-15T05:40:45.700Z,19.27
2022-08-15T05:41:16.213Z,19.28
2022-08-15T05:41:46.947Z,19.28
2022-08-15T05:42:30.672Z,19.31
2022-08-15T05:42:48.627Z,19.31
2022-08-15T05:43:19.256Z,19.30
2022-08-15T05:43:54.456Z,19.31
2022-08-15T05:44:39.274Z,19.31
2022-08-15T05:44:53.178Z,19.32
2022-08-15T05:45:31.283Z,19.34
2022-08-15T05:45:52.958Z,19.34
2022-08-15T05:46:25.225Z,19.38
2022-08-15T05:46:54.477Z,19.34
2022-08-15T05:47:25.509Z,19.34
2022-08-15T05:47:55.090Z,19.35
2022-08-15T05:48:37.984Z,19.34
2022-08-15T05:48:57.429Z,19.34
2022-08-15T05:49:28.156Z,19.34
2022-08-15T05:50:02.431Z,19.38
2022-08-15T05:50:29.994Z,19.34
2022-08-15T05:51:01.018Z,19.35
2022-08-15T05:51:31.506Z,19.35
2022-08-15T05:52:02.232Z,19.34
2022-08-15T05:52:34.662Z,19.35
2022-08-15T05:53:05.796Z,19.34
2022-08-15T05:53:34.851Z,19.35
2022-08-15T05:54:05.606Z,19.38
2022-08-15T05:54:36.245Z,19.35
2022-08-15T05:55:07.496Z,19.34
2022-08-15T05:55:38.024Z,19.39
2022-08-15T05:56:08.610Z,19.35
2022-08-15T05:56:39.146Z,19.35
2022-08-15T05:57:08.831Z,19.34
2022-08-15T05:57:40.458Z,19.34
2022-08-15T05:58:36.488Z,19.35
2022-08-15T05:58:44.804Z,19.35
2022-08-15T05:59:12.770Z,19.39
2022-08-15T05:59:48.667Z,19.38
2022-08-15T06:00:16.074Z,19.38
2022-08-15T06:00:44.419Z,19.35
2022-08-15T06:01:17.294Z,19.38
2022-08-15T06:02:35.362Z,19.35
2022-08-15T06:02:37.560Z,19.35
2022-08-15T06:02:53.339Z,19.34
2022-08-15T06:03:18.921Z,19.34
2022-08-15T06:03:49.001Z,19.32
2022-08-15T06:04:29.268Z,19.34
2022-08-15T06:04:51.388Z,19.35
2022-08-15T06:05:22.153Z,19.35
2022-08-15T06:05:53.687Z,19.34
2022-08-15T06:06:26.572Z,19.32
2022-08-15T06:06:54.450Z,19.32
2022-08-15T06:07:55.761Z,19.32
2022-08-15T06:07:59.830Z,19.34
2022-08-15T06:08:49.994Z,19.32
2022-08-15T06:09:01.459Z,19.30
2022-08-15T06:09:28.146Z,19.30
2022-08-15T06:09:58.697Z,19.28
2022-08-15T06:10:36.509Z,19.28
2022-08-15T06:10:59.964Z,19.27
2022-08-15T06:11:30.497Z,19.27
2022-08-15T06:12:05.282Z,19.27
2022-08-15T06:12:32.258Z,19.27
2022-08-15T06:13:03.161Z,19.25
2022-08-15T06:13:33.883Z,19.25
2022-08-15T06:14:07.039Z,19.24
2022-08-15T06:14:36.876Z,19.25
2022-08-15T06:15:05.988Z,19.25
2022-08-15T06:15:37.016Z,19.25
2022-08-15T06:16:45.469Z,19.25
2022-08-15T06:16:46.144Z,19.27
2022-08-15T06:17:09.202Z,19.24
2022-08-15T06:17:38.939Z,19.25
2022-08-15T06:18:09.611Z,19.24
2022-08-15T06:18:41.152Z,19.23
2022-08-15T06:19:12.190Z,19.24
2022-08-15T06:19:43.680Z,19.25
2022-08-15T06:20:29.560Z,19.27
2022-08-15T06:20:51.507Z,19.24
2022-08-15T06:21:14.751Z,19.23
2022-08-15T06:21:45.290Z,19.23
2022-08-15T06:22:16.307Z,19.23
2022-08-15T06:22:46.396Z,19.21
2022-08-15T06:23:16.724Z,19.24
2022-08-15T06:23:48.276Z,19.24
2022-08-15T06:24:26.641Z,19.24
2022-08-15T06:24:50.047Z,19.24
2022-08-15T06:25:19.711Z,19.25
2022-08-15T06:25:50.437Z,19.25
2022-08-15T06:26:22.588Z,19.23
2022-08-15T06:26:52.262Z,19.27
2022-08-15T06:27:40.046Z,19.24
2022-08-15T06:27:57.779Z,19.24
2022-08-15T06:28:53.906Z,19.24
2022-08-15T06:28:56.233Z,19.25
2022-08-15T06:29:27.224Z,19.27
2022-08-15T06:29:56.907Z,19.25
2022-08-15T06:30:28.434Z,19.25
2022-08-15T06:30:58.971Z,19.25
2022-08-15T06:31:38.867Z,19.25
2022-08-15T06:32:00.807Z,19.24
2022-08-15T06:32:32.002Z,19.25
2022-08-15T06:33:01.381Z,19.27
2022-08-15T06:33:56.383Z,19.27
2022-08-15T06:34:05.416Z,19.25
2022-08-15T06:34:46.137Z,19.27
2022-08-15T06:35:05.413Z,19.25
2022-08-15T06:35:36.142Z,19.28
2022-08-15T06:36:06.807Z,19.27